createdAt,value
2024-01-07T00:00:23.213Z,13.79
2024-01-07T00:01:50.327Z,13.74
2024-01-07T00:02:53.426Z,13.95
2024-01-07T00:03:56.749Z,13.63
2024-01-07T00:05:00.071Z,14.26
2024-01-07T00:06:03.714Z,13.04
2024-01-07T00:07:06.830Z,13.47
2024-01-07T00:08:09.799Z,12.88
2024-01-07T00:09:16.026Z,13.64
2024-01-07T00:10:18.933Z,12.87
2024-01-07T00:11:22.018Z,13.88
2024-01-07T00:12:26.021Z,12.92
2024-01-07T00:13:29.148Z,14.86
2024-01-07T00:14:32.345Z,13.70
2024-01-07T00:15:35.467Z,14.27
2024-01-07T00:16:38.611Z,13.16
2024-01-07T00:17:41.805Z,13.66
2024-01-07T00:18:45.844Z,13.51
2024-01-07T00:19:49.431Z,12.51
2024-01-07T00:20:52.406Z,12.65
2024-01-07T00:21:55.647Z,12.97
2024-01-07T00:22:58.829Z,13.33
2024-01-07T00:24:01.902Z,13.19
2024-01-07T00:25:05.728Z,14.01
2024-01-07T00:26:08.902Z,13.44
2024-01-07T00:27:11.855Z,13.87
2024-01-07T00:28:14.727Z,13.69
2024-01-07T00:29:18.234Z,12.50
2024-01-07T00:30:22.383Z,12.99
2024-01-07T00:31:25.814Z,13.19
2024-01-07T00:32:28.810Z,12.75
2024-01-07T00:33:33.003Z,13.39
2024-01-07T00:34:36.625Z,14.87
2024-01-07T00:35:39.741Z,13.45
2024-01-07T00:36:43.032Z,12.40
2024-01-07T00:37:46.341Z,11.99
2024-01-07T00:38:49.456Z,13.18
2024-01-07T00:39:52.853Z,12.23
2024-01-07T00:40:56.056Z,13.19
2024-01-07T00:41:58.887Z,13.22
2024-01-07T00:43:02.057Z,12.71
2024-01-07T00:44:05.250Z,13.16
2024-01-07T00:45:10.197Z,12.65
2024-01-07T00:46:13.431Z,12.84
2024-01-07T00:47:16.345Z,14.70
2024-01-07T00:48:19.592Z,14.69
2024-01-07T00:49:22.728Z,13.05
2024-01-07T00:50:25.727Z,13.66
2024-01-07T00:51:28.813Z,12.43
2024-01-07T00:52:31.838Z,12.62
2024-01-07T00:53:34.761Z,12.51
2024-01-07T00:54:37.798Z,13.43
2024-01-07T00:55:40.954Z,12.31
2024-01-07T00:56:47.015Z,13.55
2024-01-07T00:57:50.825Z,12.23
2024-01-07T00:58:54.753Z,13.82
2024-01-07T00:59:57.860Z,13.95
2024-01-07T01:01:01.439Z,13.21
2024-01-07T01:02:04.917Z,13.83
2024-01-07T01:03:07.966Z,12.54
2024-01-07T01:04:11.112Z,12.40
2024-01-07T01:05:14.670Z,12.73
2024-01-07T01:06:17.717Z,12.98
2024-01-07T01:07:20.870Z,14.12
2024-01-07T01:08:24.415Z,13.00
2024-01-07T01:09:29.612Z,12.47
2024-01-07T01:10:32.689Z,12.20
2024-01-07T01:11:36.027Z,12.29
2024-01-07T01:12:39.107Z,11.92
2024-01-07T01:13:42.100Z,11.70
2024-01-07T01:14:45.038Z,12.89
2024-01-07T01:15:48.291Z,12.62
2024-01-07T01:16:51.437Z,11.66
2024-01-07T01:17:54.646Z,12.06
2024-01-07T01:18:57.937Z,12.26
2024-01-07T01:20:01.063Z,11.66
2024-01-07T01:21:04.923Z,11.95
2024-01-07T01:22:08.004Z,12.41
2024-01-07T01:23:11.122Z,11.51
2024-01-07T01:24:14.145Z,12.56
2024-01-07T01:25:17.422Z,12.18
2024-01-07T01:26:20.373Z,12.06
2024-01-07T01:27:23.609Z,12.61
2024-01-07T01:28:26.573Z,11.85
2024-01-07T01:29:29.708Z,11.57
2024-01-07T01:30:33.230Z,11.78
2024-01-07T01:31:36.611Z,11.90
2024-01-07T01:32:39.935Z,13.40
2024-01-07T01:33:43.278Z,13.55
2024-01-07T01:34:46.429Z,11.99
2024-01-07T01:35:49.338Z,13.39
2024-01-07T01:36:52.373Z,13.14
2024-01-07T01:37:55.906Z,11.88
2024-01-07T01:38:58.945Z,11.83
2024-01-07T01:40:01.972Z,12.18
2024-01-07T01:41:05.084Z,13.19
2024-01-07T01:42:09.043Z,13.53
2024-01-07T01:43:12.422Z,13.13
2024-01-07T01:44:15.836Z,12.21
2024-01-07T01:45:19.990Z,12.91
2024-01-07T01:46:23.438Z,11.13
2024-01-07T01:47:26.655Z,12.05
2024-01-07T01:48:31.070Z,13.20
2024-01-07T01:49:36.848Z,12.05
2024-01-07T01:50:40.249Z,11.69
2024-01-07T01:51:43.939Z,12.92
2024-01-07T01:52:49.395Z,12.02
2024-01-07T01:53:53.152Z,12.88
2024-01-07T01:54:56.533Z,11.86
2024-01-07T01:56:03.479Z,12.28
2024-01-07T01:57:06.897Z,12.77
2024-01-07T01:58:10.467Z,11.73
2024-01-07T01:59:13.968Z,12.92
2024-01-07T02:00:17.518Z,11.83
2024-01-07T02:01:20.702Z,11.40
2024-01-07T02:02:24.256Z,11.89
2024-01-07T02:03:27.906Z,12.30
2024-01-07T02:04:31.523Z,11.12
2024-01-07T02:05:34.777Z,11.44
2024-01-07T02:06:38.513Z,11.36
2024-01-07T02:07:42.430Z,11.59
2024-01-07T02:08:46.751Z,11.00
2024-01-07T02:09:49.915Z,12.37
2024-01-07T02:10:53.107Z,12.26
2024-01-07T02:12:03.200Z,12.63
2024-01-07T02:13:06.851Z,11.59
2024-01-07T02:14:09.855Z,11.65
2024-01-07T02:15:13.245Z,12.10
2024-01-07T02:16:17.178Z,11.62
2024-01-07T02:17:21.539Z,11.12
2024-01-07T02:18:24.770Z,11.86
2024-01-07T02:19:28.016Z,13.07
2024-01-07T02:20:31.251Z,12.32
2024-01-07T02:21:34.303Z,11.99
2024-01-07T02:22:37.324Z,13.23
2024-01-07T02:23:40.676Z,12.79
2024-01-07T02:24:43.910Z,12.30
2024-01-07T02:25:50.147Z,13.03
2024-01-07T02:26:53.349Z,13.28
2024-01-07T02:27:56.745Z,13.17
2024-01-07T02:28:59.720Z,12.57
2024-01-07T02:30:03.158Z,12.71
2024-01-07T02:31:06.375Z,12.14
2024-01-07T02:32:09.479Z,12.48
2024-01-07T02:33:12.649Z,12.92
2024-01-07T02:34:15.766Z,12.90
2024-01-07T02:35:19.018Z,13.15
2024-01-07T02:36:22.274Z,12.97
2024-01-07T02:37:25.211Z,12.91
2024-01-07T02:38:28.211Z,12.74
2024-01-07T02:39:31.153Z,13.37
2024-01-07T02:40:34.190Z,12.80
2024-01-07T02:41:37.472Z,13.43
2024-01-07T02:42:40.630Z,12.61
2024-01-07T02:43:43.766Z,13.98
2024-01-07T02:44:46.691Z,12.99
2024-01-07T02:45:49.868Z,12.94
2024-01-07T02:46:52.914Z,13.05
2024-01-07T02:47:56.170Z,13.34
2024-01-07T02:48:59.229Z,13.56
2024-01-07T02:50:04.189Z,14.00
2024-01-07T02:51:09.391Z,14.98
2024-01-07T02:52:12.585Z,17.10
2024-01-07T02:53:15.546Z,19.68
2024-01-07T02:54:18.479Z,14.44
2024-01-07T02:55:21.746Z,13.84
2024-01-07T02:56:24.801Z,12.58
2024-01-07T02:57:27.949Z,13.43
2024-01-07T02:58:30.950Z,14.83
2024-01-07T02:59:34.323Z,15.47
2024-01-07T03:00:37.212Z,16.72
2024-01-07T03:01:43.707Z,15.41
2024-01-07T03:02:46.813Z,14.97
2024-01-07T03:03:50.205Z,14.49
2024-01-07T03:04:53.146Z,13.97
2024-01-07T03:05:56.389Z,14.94
2024-01-07T03:07:00.077Z,15.10
2024-01-07T03:08:03.527Z,14.88
2024-01-07T03:09:06.469Z,14.11
2024-01-07T03:10:09.944Z,14.72
2024-01-07T03:11:12.996Z,13.22
2024-01-07T03:12:17.184Z,14.00
2024-01-07T03:13:20.432Z,13.52
2024-01-07T03:14:24.453Z,14.15
2024-01-07T03:15:28.307Z,14.15
2024-01-07T03:16:31.331Z,14.12
2024-01-07T03:17:34.485Z,15.15
2024-01-07T03:18:37.552Z,16.54
2024-01-07T03:19:40.608Z,14.59
2024-01-07T03:20:43.771Z,14.32
2024-01-07T03:21:46.799Z,14.10
2024-01-07T03:22:49.890Z,15.78
2024-01-07T03:23:52.885Z,16.64
2024-01-07T03:24:56.085Z,13.99
2024-01-07T03:25:59.449Z,13.92
2024-01-07T03:27:02.555Z,15.18
2024-01-07T03:28:05.923Z,13.96
2024-01-07T03:29:08.985Z,14.55
2024-01-07T03:30:12.503Z,15.37
2024-01-07T03:31:17.364Z,14.23
2024-01-07T03:32:20.457Z,14.36
2024-01-07T03:33:23.547Z,13.74
2024-01-07T03:34:26.692Z,13.93
2024-01-07T03:35:29.725Z,12.93
2024-01-07T03:36:32.690Z,15.16
2024-01-07T03:37:36.235Z,15.43
2024-01-07T03:38:40.827Z,14.28
2024-01-07T03:39:45.919Z,13.96
2024-01-07T03:40:49.243Z,14.30
2024-01-07T03:41:56.821Z,13.80
2024-01-07T03:42:59.988Z,13.54
2024-01-07T03:44:03.191Z,13.06
2024-01-07T03:45:06.567Z,13.96
2024-01-07T03:46:09.516Z,13.61
2024-01-07T03:47:12.536Z,13.96
2024-01-07T03:48:15.505Z,14.81
2024-01-07T03:49:21.213Z,14.00
2024-01-07T03:50:24.403Z,14.20
2024-01-07T03:51:27.532Z,13.84
2024-01-07T03:52:30.975Z,12.25
2024-01-07T03:53:34.421Z,14.01
2024-01-07T03:54:37.387Z,14.12
2024-01-07T03:55:40.656Z,14.54
2024-01-07T03:56:43.580Z,12.35
2024-01-07T03:57:46.663Z,12.13
2024-01-07T03:58:49.990Z,12.87
2024-01-07T03:59:52.933Z,12.72
2024-01-07T04:00:56.103Z,12.20
2024-01-07T04:01:59.682Z,11.99
2024-01-07T04:03:02.828Z,12.16
2024-01-07T04:04:05.948Z,12.13
2024-01-07T04:05:10.220Z,12.20
2024-01-07T04:06:13.369Z,12.15
2024-01-07T04:07:16.393Z,12.78
2024-01-07T04:08:19.499Z,13.10
2024-01-07T04:09:22.678Z,12.42
2024-01-07T04:10:25.550Z,12.16
2024-01-07T04:11:28.589Z,12.98
2024-01-07T04:12:31.564Z,13.42
2024-01-07T04:13:34.597Z,13.57
2024-01-07T04:14:37.534Z,11.69
2024-01-07T04:15:40.419Z,11.55
2024-01-07T04:16:44.213Z,11.93
2024-01-07T04:17:47.227Z,12.10
2024-01-07T04:18:54.013Z,12.08
2024-01-07T04:19:57.833Z,12.07
2024-01-07T04:21:00.811Z,11.83
2024-01-07T04:22:04.011Z,12.16
2024-01-07T04:23:06.966Z,12.71
2024-01-07T04:24:09.862Z,13.02
2024-01-07T04:25:12.994Z,11.83
2024-01-07T04:26:16.151Z,12.19
2024-01-07T04:27:19.382Z,12.54
2024-01-07T04:28:22.197Z,12.29
2024-01-07T04:29:25.520Z,12.14
2024-01-07T04:30:28.642Z,12.45
2024-01-07T04:31:31.745Z,12.96
2024-01-07T04:32:34.985Z,13.97
2024-01-07T04:33:38.077Z,12.95
2024-01-07T04:34:41.124Z,11.91
2024-01-07T04:35:44.096Z,12.75
2024-01-07T04:36:47.177Z,12.39
2024-01-07T04:37:50.427Z,12.60
2024-01-07T04:38:53.262Z,12.40
2024-01-07T04:39:56.570Z,13.61
2024-01-07T04:40:59.617Z,12.10
2024-01-07T04:42:02.893Z,12.56
2024-01-07T04:43:05.749Z,12.73
2024-01-07T04:44:08.768Z,12.82
2024-01-07T04:45:11.592Z,12.49
2024-01-07T04:46:15.088Z,13.71
2024-01-07T04:47:28.666Z,13.55
2024-01-07T04:48:31.903Z,12.72
2024-01-07T04:49:35.035Z,12.26
2024-01-07T04:50:38.270Z,11.87
2024-01-07T04:51:41.233Z,11.91
2024-01-07T04:52:44.582Z,12.40
2024-01-07T04:53:47.804Z,12.69
2024-01-07T04:54:52.867Z,13.04
2024-01-07T04:55:56.101Z,14.17
2024-01-07T04:56:59.113Z,13.94
2024-01-07T04:58:02.591Z,13.28
2024-01-07T04:59:05.647Z,12.99
2024-01-07T05:00:09.164Z,13.18
2024-01-07T05:01:12.232Z,13.55
2024-01-07T05:02:15.417Z,14.37
2024-01-07T05:03:18.451Z,14.79
2024-01-07T05:04:21.640Z,14.03
2024-01-07T05:05:24.636Z,12.42
2024-01-07T05:06:27.819Z,13.13
2024-01-07T05:07:30.841Z,13.35
2024-01-07T05:08:33.850Z,13.87
2024-01-07T05:09:36.757Z,14.30
2024-01-07T05:10:39.773Z,13.53
2024-01-07T05:11:43.000Z,13.71
2024-01-07T05:12:46.076Z,13.33
2024-01-07T05:13:49.078Z,14.19
2024-01-07T05:14:52.467Z,14.50
2024-01-07T05:15:55.671Z,13.28
2024-01-07T05:16:58.700Z,13.14
2024-01-07T05:18:02.112Z,12.62
2024-01-07T05:19:05.180Z,13.49
2024-01-07T05:20:10.132Z,13.27
2024-01-07T05:21:13.270Z,12.73
2024-01-07T05:22:16.294Z,12.35
2024-01-07T05:23:19.678Z,12.67
2024-01-07T05:24:22.810Z,13.01
2024-01-07T05:25:26.022Z,13.55
2024-01-07T05:26:29.038Z,14.19
2024-01-07T05:27:31.965Z,13.77
2024-01-07T05:28:35.096Z,13.79
2024-01-07T05:29:38.097Z,13.47
2024-01-07T05:30:42.780Z,13.44
2024-01-07T05:31:45.853Z,13.72
2024-01-07T05:32:48.970Z,14.37
2024-01-07T05:33:52.339Z,15.11
2024-01-07T05:34:55.623Z,13.64
2024-01-07T05:35:59.016Z,13.33
2024-01-07T05:37:02.194Z,14.05
2024-01-07T05:38:05.242Z,13.76
2024-01-07T05:39:08.179Z,13.71
2024-01-07T05:40:11.967Z,13.39
2024-01-07T05:41:15.300Z,12.64
2024-01-07T05:42:18.344Z,13.85
2024-01-07T05:43:21.384Z,14.45
2024-01-07T05:44:25.844Z,14.27
2024-01-07T05:45:29.441Z,14.03
2024-01-07T05:46:32.562Z,14.77
2024-01-07T05:47:35.714Z,13.78
2024-01-07T05:48:44.525Z,13.44
2024-01-07T05:49:47.587Z,13.21
2024-01-07T05:50:51.439Z,13.43
2024-01-07T05:51:54.707Z,12.92
2024-01-07T05:52:57.921Z,12.95
2024-01-07T05:54:00.897Z,13.12
2024-01-07T05:55:04.330Z,13.18
2024-01-07T05:56:08.358Z,13.68
2024-01-07T05:57:13.434Z,14.16
2024-01-07T05:58:16.500Z,13.56
2024-01-07T05:59:19.543Z,15.04
2024-01-07T06:00:22.953Z,15.86
2024-01-07T06:01:25.974Z,14.80
2024-01-07T06:02:28.973Z,15.46
2024-01-07T06:03:32.012Z,14.51
2024-01-07T06:04:35.062Z,14.08
2024-01-07T06:05:39.578Z,14.30
2024-01-07T06:06:42.965Z,13.33
2024-01-07T06:07:46.229Z,12.64
2024-01-07T06:08:49.251Z,12.75
2024-01-07T06:09:52.422Z,14.53
2024-01-07T06:10:55.590Z,14.57
2024-01-07T06:11:58.506Z,14.70
2024-01-07T06:13:01.585Z,14.93
2024-01-07T06:14:04.613Z,14.72
2024-01-07T06:15:07.946Z,15.62
2024-01-07T06:16:10.991Z,14.16
2024-01-07T06:17:14.161Z,14.37
2024-01-07T06:18:17.147Z,14.83
2024-01-07T06:19:21.200Z,13.76
2024-01-07T06:20:24.993Z,15.10
2024-01-07T06:21:27.974Z,13.81
2024-01-07T06:22:30.983Z,14.30
2024-01-07T06:23:34.669Z,14.43
2024-01-07T06:24:37.886Z,13.30
2024-01-07T06:25:40.895Z,14.17
2024-01-07T06:26:44.228Z,15.01
2024-01-07T06:27:47.505Z,14.29
2024-01-07T06:28:51.408Z,15.18
2024-01-07T06:29:54.219Z,14.80
2024-01-07T06:31:00.113Z,14.22
2024-01-07T06:32:04.625Z,14.59
2024-01-07T06:33:07.823Z,14.78
2024-01-07T06:34:14.835Z,15.25
2024-01-07T06:35:17.994Z,15.27
2024-01-07T06:36:20.921Z,14.43
2024-01-07T06:37:23.814Z,14.14
2024-01-07T06:38:26.934Z,13.96
2024-01-07T06:39:29.950Z,13.91
2024-01-07T06:40:33.611Z,13.95
2024-01-07T06:41:36.779Z,13.53
2024-01-07T06:42:40.161Z,14.61
2024-01-07T06:43:43.369Z,14.83
2024-01-07T06:44:46.365Z,15.55
2024-01-07T06:45:49.272Z,16.09
2024-01-07T06:46:52.591Z,16.94
2024-01-07T06:47:56.028Z,16.25
2024-01-07T06:48:59.942Z,15.55
2024-01-07T06:50:03.184Z,16.36
2024-01-07T06:51:06.292Z,14.55
2024-01-07T06:52:09.376Z,15.08
2024-01-07T06:53:12.445Z,15.66
2024-01-07T06:54:15.508Z,15.26
2024-01-07T06:55:18.646Z,14.17
2024-01-07T06:56:21.860Z,14.78
2024-01-07T06:57:24.815Z,16.62
2024-01-07T06:58:27.810Z,16.07
2024-01-07T06:59:30.795Z,17.48
2024-01-07T07:00:33.985Z,17.35
2024-01-07T07:01:37.088Z,15.39
2024-01-07T07:02:40.266Z,13.95
2024-01-07T07:03:43.520Z,16.59
2024-01-07T07:04:46.498Z,16.27
2024-01-07T07:05:49.641Z,16.09
2024-01-07T07:06:52.769Z,18.02
2024-01-07T07:07:56.062Z,16.69
2024-01-07T07:08:59.146Z,17.11
2024-01-07T07:10:02.296Z,16.24
2024-01-07T07:11:05.898Z,16.39
2024-01-07T07:12:09.209Z,16.93
2024-01-07T07:13:13.528Z,17.81
2024-01-07T07:14:16.559Z,18.42
2024-01-07T07:15:19.947Z,19.56
2024-01-07T07:16:23.988Z,18.06
2024-01-07T07:17:27.037Z,16.64
2024-01-07T07:18:30.198Z,15.71
2024-01-07T07:19:33.358Z,14.63
2024-01-07T07:20:36.315Z,15.56
2024-01-07T07:21:39.383Z,15.55
2024-01-07T07:22:42.469Z,16.43
2024-01-07T07:23:45.404Z,14.54
2024-01-07T07:24:48.770Z,14.79
2024-01-07T07:25:52.606Z,14.23
2024-01-07T07:26:56.086Z,14.60
2024-01-07T07:27:59.038Z,14.13
2024-01-07T07:29:02.996Z,15.48
2024-01-07T07:30:07.553Z,15.79
2024-01-07T07:31:13.043Z,16.23
2024-01-07T07:32:16.119Z,16.64
2024-01-07T07:33:19.676Z,16.66
2024-01-07T07:34:22.890Z,16.04
2024-01-07T07:35:25.894Z,16.29
2024-01-07T07:36:28.933Z,15.27
2024-01-07T07:37:31.896Z,15.41
2024-01-07T07:38:34.927Z,15.97
2024-01-07T07:39:38.056Z,15.23
2024-01-07T07:40:41.322Z,15.78
2024-01-07T07:41:44.497Z,16.25
2024-01-07T07:42:47.712Z,14.85
2024-01-07T07:43:50.822Z,17.24
2024-01-07T07:44:54.190Z,18.03
2024-01-07T07:45:57.408Z,17.54
2024-01-07T07:47:00.397Z,17.75
2024-01-07T07:48:03.701Z,19.56
2024-01-07T07:49:06.668Z,19.27
2024-01-07T07:50:11.389Z,16.89
2024-01-07T07:51:15.063Z,16.29
2024-01-07T07:52:23.011Z,17.38
2024-01-07T07:53:25.861Z,16.36
2024-01-07T07:54:29.042Z,17.35
2024-01-07T07:55:32.015Z,15.92
2024-01-07T07:56:36.946Z,15.76
2024-01-07T07:57:39.923Z,18.10
2024-01-07T07:58:43.247Z,17.37
2024-01-07T07:59:46.127Z,16.85
2024-01-07T08:00:49.211Z,17.51
2024-01-07T08:01:52.448Z,17.30
2024-01-07T08:02:55.980Z,17.06
2024-01-07T08:03:59.131Z,16.84
2024-01-07T08:05:02.213Z,17.67
2024-01-07T08:06:06.911Z,16.47
2024-01-07T08:07:13.854Z,17.48
2024-01-07T08:08:18.039Z,15.97
2024-01-07T08:09:21.011Z,15.69
2024-01-07T08:10:24.157Z,15.25
2024-01-07T08:11:27.158Z,16.74
2024-01-07T08:12:30.261Z,15.21
2024-01-07T08:13:33.447Z,15.96
2024-01-07T08:14:37.101Z,17.17
2024-01-07T08:15:40.069Z,16.19
2024-01-07T08:16:43.340Z,17.64
2024-01-07T08:17:46.631Z,17.60
2024-01-07T08:18:49.625Z,17.08
2024-01-07T08:19:54.022Z,17.78
2024-01-07T08:20:57.252Z,18.64
2024-01-07T08:22:00.271Z,18.39
2024-01-07T08:23:03.287Z,18.04
2024-01-07T08:24:06.361Z,16.66
2024-01-07T08:25:10.265Z,15.88
2024-01-07T08:26:22.983Z,17.49
2024-01-07T08:27:26.152Z,18.30
2024-01-07T08:28:29.122Z,17.79
2024-01-07T08:29:32.243Z,16.50
2024-01-07T08:30:35.882Z,17.63
2024-01-07T08:31:38.924Z,16.61
2024-01-07T08:32:42.713Z,17.65
2024-01-07T08:33:45.804Z,17.62
2024-01-07T08:34:49.058Z,18.23
2024-01-07T08:35:52.121Z,17.88
2024-01-07T08:36:55.512Z,17.56
2024-01-07T08:37:58.649Z,18.16
2024-01-07T08:39:01.621Z,17.91
2024-01-07T08:40:05.197Z,17.40
2024-01-07T08:41:09.074Z,17.04
2024-01-07T08:42:12.017Z,17.54
2024-01-07T08:43:15.543Z,18.04
2024-01-07T08:44:18.407Z,18.71
2024-01-07T08:45:21.456Z,16.57
2024-01-07T08:46:24.495Z,17.95
2024-01-07T08:47:27.588Z,16.98
2024-01-07T08:48:30.548Z,17.08
2024-01-07T08:49:37.235Z,17.93
2024-01-07T08:50:40.245Z,16.64
2024-01-07T08:51:43.759Z,16.05
2024-01-07T08:52:47.524Z,17.82
2024-01-07T08:53:50.511Z,18.99
2024-01-07T08:54:53.574Z,17.48
2024-01-07T08:55:57.292Z,16.53
2024-01-07T08:57:00.616Z,16.22
2024-01-07T08:58:03.682Z,16.93
2024-01-07T08:59:06.697Z,16.92
2024-01-07T09:00:10.057Z,16.47
2024-01-07T09:01:15.593Z,17.72
2024-01-07T09:02:21.462Z,21.01
2024-01-07T09:03:24.569Z,22.59
2024-01-07T09:04:28.582Z,19.26
2024-01-07T09:05:31.754Z,18.44
2024-01-07T09:06:35.005Z,20.22
2024-01-07T09:07:38.260Z,19.33
2024-01-07T09:08:41.413Z,19.12
2024-01-07T09:09:44.630Z,18.43
2024-01-07T09:10:47.601Z,18.05
2024-01-07T09:11:50.668Z,17.48
2024-01-07T09:12:54.885Z,18.68
2024-01-07T09:13:58.133Z,17.98
2024-01-07T09:15:01.132Z,17.32
2024-01-07T09:16:04.199Z,17.61
2024-01-07T09:17:07.536Z,17.41
2024-01-07T09:18:10.779Z,18.40
2024-01-07T09:19:15.097Z,20.25
2024-01-07T09:20:18.964Z,22.85
2024-01-07T09:21:22.012Z,19.77
2024-01-07T09:22:25.002Z,18.20
2024-01-07T09:23:27.943Z,17.31
2024-01-07T09:24:31.504Z,16.94
2024-01-07T09:25:34.415Z,16.92
2024-01-07T09:26:37.370Z,18.11
2024-01-07T09:27:40.413Z,16.65
2024-01-07T09:28:44.046Z,18.07
2024-01-07T09:29:46.911Z,15.69
2024-01-07T09:30:50.088Z,15.96
2024-01-07T09:31:53.234Z,16.37
2024-01-07T09:32:56.685Z,16.58
2024-01-07T09:33:59.887Z,17.69
2024-01-07T09:35:02.947Z,17.81
2024-01-07T09:36:15.647Z,16.38
2024-01-07T09:37:29.666Z,18.34
2024-01-07T09:38:32.602Z,18.31
2024-01-07T09:39:41.135Z,18.25
2024-01-07T09:40:44.433Z,17.74
2024-01-07T09:41:47.655Z,17.88
2024-01-07T09:42:51.291Z,18.19
2024-01-07T09:43:54.981Z,17.95
2024-01-07T09:45:04.646Z,18.89
2024-01-07T09:46:07.754Z,17.53
2024-01-07T09:47:16.952Z,16.69
2024-01-07T09:48:20.195Z,16.15
2024-01-07T09:49:23.914Z,19.41
2024-01-07T09:50:27.802Z,21.74
2024-01-07T09:51:38.241Z,19.91
2024-01-07T09:52:45.966Z,18.64
2024-01-07T09:53:50.280Z,18.24
2024-01-07T09:55:03.022Z,17.73
2024-01-07T09:56:24.155Z,18.19
2024-01-07T09:57:27.848Z,17.99
2024-01-07T09:58:30.873Z,15.99
2024-01-07T09:59:35.357Z,17.45
2024-01-07T10:00:40.073Z,18.60
2024-01-07T10:01:46.430Z,22.01
2024-01-07T10:02:50.463Z,20.05
2024-01-07T10:03:53.584Z,21.66
2024-01-07T10:04:56.844Z,17.36
2024-01-07T10:05:59.728Z,18.03
2024-01-07T10:07:02.784Z,19.77
2024-01-07T10:08:07.651Z,22.22
2024-01-07T10:09:13.235Z,26.80
2024-01-07T10:10:18.436Z,23.63
2024-01-07T10:11:23.629Z,24.52
2024-01-07T10:12:27.646Z,24.01
2024-01-07T10:13:31.738Z,21.82
2024-01-07T10:14:34.944Z,18.49
2024-01-07T10:15:37.973Z,19.19
2024-01-07T10:16:40.899Z,17.02
2024-01-07T10:17:44.626Z,17.25
2024-01-07T10:18:48.326Z,17.27
2024-01-07T10:19:51.366Z,20.08
2024-01-07T10:20:55.745Z,20.38
2024-01-07T10:22:06.269Z,18.66
2024-01-07T10:23:09.805Z,18.80
2024-01-07T10:24:14.257Z,21.17
2024-01-07T10:25:17.594Z,20.58
2024-01-07T10:26:27.547Z,21.00
2024-01-07T10:27:37.704Z,21.09
2024-01-07T10:28:41.541Z,21.26
2024-01-07T10:29:50.756Z,20.46
2024-01-07T10:30:53.955Z,20.25
2024-01-07T10:31:59.548Z,20.39
2024-01-07T10:33:03.282Z,20.23
2024-01-07T10:34:10.407Z,20.00
2024-01-07T10:35:17.568Z,19.14
2024-01-07T10:36:22.573Z,20.53
2024-01-07T10:37:26.340Z,17.87
2024-01-07T10:38:29.343Z,18.92
2024-01-07T10:39:32.386Z,21.72
2024-01-07T10:40:35.475Z,20.33
2024-01-07T10:41:39.727Z,19.47
2024-01-07T10:42:45.316Z,24.72
2024-01-07T10:43:49.879Z,30.62
2024-01-07T10:44:52.946Z,22.62
2024-01-07T10:45:56.673Z,21.89
2024-01-07T10:47:01.024Z,19.51
2024-01-07T10:48:08.879Z,18.57
2024-01-07T10:49:22.474Z,24.72
2024-01-07T10:50:27.774Z,27.26
2024-01-07T10:51:35.534Z,23.79
2024-01-07T10:52:41.758Z,25.54
2024-01-07T10:53:52.518Z,19.61
2024-01-07T10:55:10.504Z,19.33
2024-01-07T10:56:15.074Z,18.39
2024-01-07T10:57:43.634Z,21.70
2024-01-07T10:58:48.476Z,23.94
2024-01-07T10:59:54.752Z,24.14
2024-01-07T11:00:58.505Z,24.28
2024-01-07T11:02:05.230Z,25.12
2024-01-07T11:03:19.529Z,26.32
2024-01-07T11:04:38.952Z,25.50
2024-01-07T11:05:55.629Z,24.31
2024-01-07T11:07:12.121Z,22.71
2024-01-07T11:08:33.162Z,21.20
2024-01-07T11:10:08.292Z,23.67
2024-01-07T11:11:19.425Z,19.93
2024-01-07T11:12:22.762Z,23.41
2024-01-07T11:13:40.025Z,24.50
2024-01-07T11:14:53.778Z,24.94
2024-01-07T11:15:57.587Z,26.83
2024-01-07T11:17:00.617Z,27.79
2024-01-07T11:18:03.997Z,25.97
2024-01-07T11:19:07.152Z,25.06
2024-01-07T11:20:18.789Z,25.39
2024-01-07T11:21:25.961Z,25.67
2024-01-07T11:22:30.001Z,26.36
2024-01-07T11:23:37.393Z,23.35
2024-01-07T11:24:42.102Z,25.65
2024-01-07T11:25:45.309Z,24.03
2024-01-07T11:26:48.305Z,23.95
2024-01-07T11:27:51.354Z,28.06
2024-01-07T11:28:59.695Z,24.72
2024-01-07T11:30:07.873Z,25.60
2024-01-07T11:31:11.206Z,24.71
2024-01-07T11:32:16.087Z,26.06
2024-01-07T11:33:19.086Z,23.81
2024-01-07T11:34:43.075Z,23.88
2024-01-07T11:35:58.262Z,24.43
2024-01-07T11:37:02.905Z,22.92
2024-01-07T11:38:06.660Z,21.60
2024-01-07T11:39:10.652Z,22.75
2024-01-07T11:40:15.432Z,21.19
2024-01-07T11:41:21.636Z,28.00
2024-01-07T11:42:24.856Z,26.24
2024-01-07T11:43:28.108Z,23.28
2024-01-07T11:44:34.229Z,23.28
2024-01-07T11:45:37.567Z,21.06
2024-01-07T11:46:40.453Z,21.94
2024-01-07T11:47:43.664Z,20.16
2024-01-07T11:48:47.634Z,20.06
2024-01-07T11:49:50.867Z,20.53
2024-01-07T11:50:56.159Z,20.00
2024-01-07T11:52:00.493Z,19.50
2024-01-07T11:53:03.971Z,19.76
2024-01-07T11:54:08.166Z,19.88
2024-01-07T11:55:11.640Z,20.14
2024-01-07T11:56:14.961Z,19.63
2024-01-07T11:57:18.433Z,18.56
2024-01-07T11:58:21.810Z,17.83
2024-01-07T11:59:25.050Z,18.61
2024-01-07T12:00:28.006Z,18.68
2024-01-07T12:01:31.061Z,18.95
2024-01-07T12:02:33.997Z,19.58
2024-01-07T12:03:37.480Z,19.05
2024-01-07T12:04:40.517Z,19.88
2024-01-07T12:05:44.685Z,19.90
2024-01-07T12:06:49.505Z,17.98
2024-01-07T12:07:52.536Z,18.82
2024-01-07T12:08:55.617Z,17.34
2024-01-07T12:09:59.389Z,17.81
2024-01-07T12:11:02.743Z,17.86
2024-01-07T12:12:06.273Z,17.50
2024-01-07T12:13:12.171Z,17.15
2024-01-07T12:14:16.000Z,16.52
2024-01-07T12:15:21.158Z,15.98
2024-01-07T12:16:24.395Z,15.37
2024-01-07T12:17:27.508Z,15.83
2024-01-07T12:18:30.921Z,17.56
2024-01-07T12:19:34.231Z,17.89
2024-01-07T12:20:37.374Z,18.07
2024-01-07T12:21:41.294Z,18.32
2024-01-07T12:22:44.550Z,18.07
2024-01-07T12:23:51.803Z,16.87
2024-01-07T12:25:04.359Z,17.89
2024-01-07T12:26:12.351Z,17.66
2024-01-07T12:27:17.455Z,17.70
2024-01-07T12:28:21.253Z,17.22
2024-01-07T12:29:26.468Z,14.47
2024-01-07T12:30:29.671Z,15.68
2024-01-07T12:31:34.917Z,16.76
2024-01-07T12:32:38.114Z,15.99
2024-01-07T12:33:42.350Z,15.81
2024-01-07T12:34:45.521Z,16.43
2024-01-07T12:35:48.784Z,17.96
2024-01-07T12:36:52.716Z,18.68
2024-01-07T12:37:57.491Z,20.22
2024-01-07T12:39:00.653Z,25.42
2024-01-07T12:40:04.358Z,22.34
2024-01-07T12:41:08.144Z,22.36
2024-01-07T12:42:11.106Z,18.53
2024-01-07T12:43:14.273Z,18.50
2024-01-07T12:44:18.216Z,17.91
2024-01-07T12:45:21.292Z,16.85
2024-01-07T12:46:24.406Z,17.15
2024-01-07T12:47:28.090Z,16.65
2024-01-07T12:48:31.759Z,17.60
2024-01-07T12:49:34.787Z,19.51
2024-01-07T12:50:37.743Z,24.05
2024-01-07T12:51:41.073Z,21.96
2024-01-07T12:52:44.561Z,21.27
2024-01-07T12:53:47.440Z,20.68
2024-01-07T12:54:50.417Z,20.31
2024-01-07T12:55:54.532Z,20.35
2024-01-07T12:56:57.625Z,19.72
2024-01-07T12:58:00.975Z,18.88
2024-01-07T12:59:04.067Z,19.67
2024-01-07T13:00:08.419Z,20.47
2024-01-07T13:01:12.052Z,18.64
2024-01-07T13:02:15.467Z,18.46
2024-01-07T13:03:18.936Z,18.52
2024-01-07T13:04:22.341Z,18.36
2024-01-07T13:05:25.515Z,19.06
2024-01-07T13:06:28.662Z,19.63
2024-01-07T13:07:31.966Z,19.38
2024-01-07T13:08:34.926Z,19.91
2024-01-07T13:09:37.925Z,21.69
2024-01-07T13:10:41.113Z,22.44
2024-01-07T13:11:44.125Z,22.13
2024-01-07T13:12:50.446Z,19.83
2024-01-07T13:13:59.986Z,20.63
2024-01-07T13:15:04.680Z,20.06
2024-01-07T13:16:07.863Z,21.22
2024-01-07T13:17:11.076Z,20.35
2024-01-07T13:18:14.458Z,19.87
2024-01-07T13:19:17.500Z,21.93
2024-01-07T13:20:21.176Z,20.88
2024-01-07T13:21:24.380Z,20.06
2024-01-07T13:22:27.645Z,21.02
2024-01-07T13:23:30.888Z,18.58
2024-01-07T13:24:33.856Z,18.59
2024-01-07T13:25:36.818Z,20.14
2024-01-07T13:26:39.877Z,18.81
2024-01-07T13:27:43.765Z,21.14
2024-01-07T13:28:46.981Z,20.44
2024-01-07T13:29:50.174Z,21.03
2024-01-07T13:30:54.304Z,21.41
2024-01-07T13:31:57.964Z,23.18
2024-01-07T13:33:03.138Z,21.91
2024-01-07T13:34:07.487Z,21.65
2024-01-07T13:35:11.630Z,20.06
2024-01-07T13:36:14.875Z,20.95
2024-01-07T13:37:17.942Z,22.09
2024-01-07T13:38:21.210Z,21.06
2024-01-07T13:39:24.399Z,22.30
2024-01-07T13:40:28.292Z,21.28
2024-01-07T13:41:33.274Z,20.25
2024-01-07T13:42:36.553Z,24.29
2024-01-07T13:43:41.592Z,21.94
2024-01-07T13:44:47.996Z,20.02